createdAt,value
2017-08-02T00:00:15.823Z,27.1
2017-08-02T00:01:16.459Z,27.12
2017-08-02T00:02:16.184Z,27.09
2017-08-02T00:03:16.529Z,27.1
2017-08-02T00:04:16.554Z,27.14
2017-08-02T00:05:16.273Z,27.14
2017-08-02T00:06:16.604Z,27.06
2017-08-02T00:07:16.016Z,27.1
2017-08-02T00:08:16.674Z,27.09
2017-08-02T00:09:16.707Z,27.09
2017-08-02T00:10:16.732Z,27.12
2017-08-02T00:11:16.695Z,27.12
2017-08-02T00:12:16.798Z,27.12
2017-08-02T00:13:16.510Z,27.1
2017-08-02T00:14:16.525Z,27.09
2017-08-02T00:15:16.255Z,27.12
2017-08-02T00:16:16.531Z,27.06
2017-08-02T00:17:16.624Z,27.12
2017-08-02T00:18:16.341Z,27.12
2017-08-02T00:19:16.368Z,27.09
2017-08-02T00:20:17.016Z,27.06
2017-08-02T00:21:16.991Z,27.09
2017-08-02T00:22:16.771Z,27.09
2017-08-02T00:23:16.797Z,27.1
2017-08-02T00:24:16.826Z,27.09
2017-08-02T00:25:16.856Z,27.14
2017-08-02T00:26:17.444Z,27.12
2017-08-02T00:27:16.601Z,27.12
2017-08-02T00:28:17.249Z,27.12
2017-08-02T00:29:16.967Z,27.12
2017-08-02T00:30:17.027Z,27.1
2017-08-02T00:31:17.601Z,27.1
2017-08-02T00:32:16.763Z,27.1
2017-08-02T00:33:17.393Z,27.14
2017-08-02T00:34:17.418Z,27.1
2017-08-02T00:35:17.459Z,27.1
2017-08-02T00:36:17.471Z,27.14
2017-08-02T00:37:17.202Z,27.07
2017-08-02T00:38:17.227Z,27.09
2017-08-02T00:39:17.255Z,27.07
2017-08-02T00:40:17.600Z,27.07
2017-08-02T00:41:17.001Z,27.12
2017-08-02T00:42:17.665Z,27.1
2017-08-02T00:43:17.374Z,27.06
2017-08-02T00:44:17.395Z,27.12
2017-08-02T00:45:17.431Z,27.1
2017-08-02T00:46:17.465Z,27.09
2017-08-02T00:47:17.493Z,27.09
2017-08-02T00:48:17.518Z,27.12
2017-08-02T00:49:17.566Z,27.1
2017-08-02T00:50:17.264Z,27.17
2017-08-02T00:51:17.605Z,27.1
2017-08-02T00:52:17.946Z,27.1
2017-08-02T00:53:17.662Z,27.19
2017-08-02T00:54:17.375Z,27.09
2017-08-02T00:55:18.036Z,27.07
2017-08-02T00:56:17.440Z,27.13
2017-08-02T00:57:18.092Z,27.1
2017-08-02T00:58:17.803Z,27.12
2017-08-02T00:59:18.151Z,27.17
2017-08-02T01:00:18.210Z,27.07
2017-08-02T01:01:18.209Z,27.06
2017-08-02T01:02:18.243Z,27.13
2017-08-02T01:03:17.961Z,27.06
2017-08-02T01:04:18.295Z,27.12
2017-08-02T01:05:18.328Z,27.06
2017-08-02T01:06:17.725Z,27.04
2017-08-02T01:07:18.321Z,27.13
2017-08-02T01:08:18.102Z,27.1
2017-08-02T01:09:18.443Z,27.07
2017-08-02T01:10:18.468Z,27.07
2017-08-02T01:11:18.496Z,27.07
2017-08-02T01:12:18.461Z,27.07
2017-08-02T01:13:18.554Z,27.04
2017-08-02T01:14:18.267Z,27.06
2017-08-02T01:15:18.300Z,26.99
2017-08-02T01:16:18.644Z,27.07
2017-08-02T01:17:18.970Z,27.07
2017-08-02T01:18:18.387Z,27.02
2017-08-02T01:19:18.732Z,27.04
2017-08-02T01:20:18.756Z,26.99
2017-08-02T01:21:18.158Z,27.03
2017-08-02T01:22:18.758Z,27.04
2017-08-02T01:23:18.541Z,26.95
2017-08-02T01:24:18.560Z,27.03
2017-08-02T01:25:18.280Z,27.04
2017-08-02T01:26:18.618Z,26.89
2017-08-02T01:27:19.226Z,26.95
2017-08-02T01:28:18.987Z,26.97
2017-08-02T01:29:19.016Z,26.89
2017-08-02T01:30:18.422Z,26.94
2017-08-02T01:31:18.757Z,26.99
2017-08-02T01:32:19.094Z,26.89
2017-08-02T01:33:18.834Z,26.97
2017-08-02T01:34:19.160Z,27
2017-08-02T01:35:19.193Z,27
2017-08-02T01:36:19.230Z,26.94
2017-08-02T01:37:19.193Z,27
2017-08-02T01:38:18.963Z,26.94
2017-08-02T01:39:18.998Z,27.04
2017-08-02T01:40:19.336Z,27
2017-08-02T01:41:19.369Z,26.99
2017-08-02T01:42:19.698Z,26.99
2017-08-02T01:43:19.113Z,27.09
2017-08-02T01:44:19.133Z,27.04
2017-08-02T01:45:18.884Z,27.09
2017-08-02T01:46:19.206Z,27.03
2017-08-02T01:47:19.186Z,27.06
2017-08-02T01:48:19.255Z,27
2017-08-02T01:49:19.592Z,26.95
2017-08-02T01:50:19.308Z,26.99
2017-08-02T01:51:19.357Z,27.04
2017-08-02T01:52:19.063Z,27.06
2017-08-02T01:53:19.403Z,27
2017-08-02T01:54:19.747Z,27.03
2017-08-02T01:55:19.765Z,27.03
2017-08-02T01:56:19.485Z,27.07
2017-08-02T01:57:19.199Z,27.02
2017-08-02T01:58:19.543Z,27.1
2017-08-02T01:59:19.572Z,27.06
2017-08-02T02:00:19.913Z,27.06
2017-08-02T02:01:19.638Z,27.07
2017-08-02T02:02:19.974Z,27.06
2017-08-02T02:03:19.687Z,27.06
2017-08-02T02:04:19.715Z,27.02
2017-08-02T02:05:20.065Z,27.09
2017-08-02T02:06:19.773Z,26.99
2017-08-02T02:07:19.490Z,27.03
2017-08-02T02:08:20.146Z,26.99
2017-08-02T02:09:19.855Z,27
2017-08-02T02:10:19.887Z,27.07
2017-08-02T02:11:20.234Z,27.04
2017-08-02T02:12:20.263Z,26.99
2017-08-02T02:13:19.980Z,27.02
2017-08-02T02:14:20.008Z,26.99
2017-08-02T02:15:20.041Z,27.04
2017-08-02T02:16:20.374Z,27.04
2017-08-02T02:17:20.409Z,27
2017-08-02T02:18:20.134Z,27.02
2017-08-02T02:19:20.149Z,27.06
2017-08-02T02:20:20.514Z,27.02
2017-08-02T02:21:20.219Z,27.02
2017-08-02T02:22:20.559Z,27.04
2017-08-02T02:23:20.279Z,26.94
2017-08-02T02:24:20.622Z,26.99
2017-08-02T02:25:20.330Z,27.06
2017-08-02T02:26:20.359Z,27.04
2017-08-02T02:27:20.690Z,27.02
2017-08-02T02:28:20.728Z,26.95
2017-08-02T02:29:20.754Z,27.03
2017-08-02T02:30:20.469Z,26.99
2017-08-02T02:31:20.497Z,27.06
2017-08-02T02:32:20.530Z,27.09
2017-08-02T02:33:20.560Z,27.02
2017-08-02T02:34:20.910Z,27.04
2017-08-02T02:35:20.618Z,27
2017-08-02T02:36:20.951Z,27.02
2017-08-02T02:37:20.680Z,27
2017-08-02T02:38:20.395Z,27.02
2017-08-02T02:39:21.041Z,27.03
2017-08-02T02:40:20.758Z,26.92
2017-08-02T02:41:20.786Z,27.06
2017-08-02T02:42:20.820Z,27.04
2017-08-02T02:43:20.857Z,27
2017-08-02T02:44:21.181Z,26.99
2017-08-02T02:45:21.214Z,27.02
2017-08-02T02:46:21.243Z,26.91
2017-08-02T02:47:20.957Z,27.03
2017-08-02T02:48:20.989Z,27.02
2017-08-02T02:49:21.021Z,26.99
2017-08-02T02:50:20.738Z,26.95
2017-08-02T02:51:20.766Z,26.89
2017-08-02T02:52:21.103Z,26.97
2017-08-02T02:53:21.697Z,26.94
2017-08-02T02:54:20.853Z,26.95
2017-08-02T02:55:21.502Z,26.95
2017-08-02T02:56:21.527Z,26.99
2017-08-02T02:57:21.271Z,27
2017-08-02T02:58:21.581Z,26.94
2017-08-02T02:59:21.304Z,26.94
2017-08-02T03:00:21.026Z,26.94
2017-08-02T03:01:21.679Z,26.92
2017-08-02T03:02:21.696Z,27
2017-08-02T03:03:21.353Z,26.94
2017-08-02T03:04:21.765Z,26.91
2017-08-02T03:05:21.478Z,26.89
2017-08-02T03:06:21.819Z,26.91
2017-08-02T03:07:21.224Z,26.94
2017-08-02T03:08:21.813Z,26.95
2017-08-02T03:09:21.282Z,26.94
2017-08-02T03:10:21.921Z,26.92
2017-08-02T03:11:21.650Z,26.88
2017-08-02T03:12:21.676Z,26.97
2017-08-02T03:13:22.276Z,26.89
2017-08-02T03:14:22.049Z,26.88
2017-08-02T03:15:21.775Z,26.81
2017-08-02T03:16:21.795Z,26.88
2017-08-02T03:17:21.516Z,26.85
2017-08-02T03:18:22.101Z,26.87
2017-08-02T03:19:22.189Z,26.89
2017-08-02T03:20:21.901Z,26.88
2017-08-02T03:21:21.939Z,26.85
2017-08-02T03:22:21.964Z,26.89
2017-08-02T03:23:22.241Z,26.91
2017-08-02T03:24:22.026Z,26.82
2017-08-02T03:25:21.747Z,26.8
2017-08-02T03:26:22.084Z,26.89
2017-08-02T03:27:22.116Z,26.88
2017-08-02T03:28:22.402Z,26.8
2017-08-02T03:29:22.472Z,26.82
2017-08-02T03:30:22.207Z,26.82
2017-08-02T03:31:21.919Z,26.82
2017-08-02T03:32:22.252Z,26.8
2017-08-02T03:33:22.908Z,26.84
2017-08-02T03:34:22.313Z,26.72
2017-08-02T03:35:22.343Z,26.76
2017-08-02T03:36:22.687Z,26.73
2017-08-02T03:37:22.716Z,26.72
2017-08-02T03:38:22.690Z,26.8
2017-08-02T03:39:22.774Z,26.66
2017-08-02T03:40:22.178Z,26.65
2017-08-02T03:41:22.520Z,26.65
2017-08-02T03:42:22.846Z,26.63
2017-08-02T03:43:22.827Z,26.58
2017-08-02T03:44:22.923Z,26.69
2017-08-02T03:45:22.939Z,26.63
2017-08-02T03:46:22.972Z,26.66
2017-08-02T03:47:22.692Z,26.69
2017-08-02T03:48:23.017Z,26.66
2017-08-02T03:49:23.054Z,26.72
2017-08-02T03:50:22.772Z,26.72
2017-08-02T03:51:22.803Z,26.8
2017-08-02T03:52:22.514Z,26.69
2017-08-02T03:53:22.853Z,26.66
2017-08-02T03:54:22.889Z,26.76
2017-08-02T03:55:23.235Z,26.7
2017-08-02T03:56:23.264Z,26.77
2017-08-02T03:57:22.977Z,26.77
2017-08-02T03:58:23.572Z,26.73
2017-08-02T03:59:22.728Z,26.7
2017-08-02T04:00:23.064Z,26.77
2017-08-02T04:01:23.120Z,26.76
2017-08-02T04:02:23.436Z,26.72
2017-08-02T04:03:23.713Z,26.65
2017-08-02T04:04:23.175Z,26.8
2017-08-02T04:05:23.203Z,26.67
2017-08-02T04:06:22.919Z,26.67
2017-08-02T04:07:23.573Z,26.72
2017-08-02T04:08:23.601Z,26.63
2017-08-02T04:09:23.631Z,26.73
2017-08-02T04:10:23.662Z,26.72
2017-08-02T04:11:23.373Z,26.66
2017-08-02T04:12:23.720Z,26.8
2017-08-02T04:13:23.736Z,26.63
2017-08-02T04:14:23.466Z,26.62
2017-08-02T04:15:23.499Z,26.67
2017-08-02T04:16:23.209Z,26.6
2017-08-02T04:17:23.560Z,26.66
2017-08-02T04:18:23.889Z,26.67
2017-08-02T04:19:23.923Z,26.66
2017-08-02T04:20:23.952Z,26.62
2017-08-02T04:21:23.664Z,26.69
2017-08-02T04:22:23.688Z,26.65
2017-08-02T04:23:24.285Z,26.66
2017-08-02T04:24:23.749Z,26.66
2017-08-02T04:25:24.087Z,26.58
2017-08-02T04:26:23.800Z,26.58
2017-08-02T04:27:23.525Z,26.67
2017-08-02T04:28:23.559Z,26.6
2017-08-02T04:29:23.588Z,26.62
2017-08-02T04:30:23.616Z,26.65
2017-08-02T04:31:24.269Z,26.66
2017-08-02T04:32:23.985Z,26.67
2017-08-02T04:33:24.321Z,26.7
2017-08-02T04:34:24.350Z,26.72
2017-08-02T04:35:23.760Z,26.62
2017-08-02T04:36:24.409Z,26.65
2017-08-02T04:37:24.445Z,26.65
2017-08-02T04:38:24.466Z,26.63
2017-08-02T04:39:24.185Z,26.62
2017-08-02T04:40:24.216Z,26.65
2017-08-02T04:41:24.248Z,26.7
2017-08-02T04:42:24.269Z,26.7
2017-08-02T04:43:24.306Z,26.58
2017-08-02T04:44:24.327Z,26.7
2017-08-02T04:45:24.040Z,26.7
2017-08-02T04:46:24.397Z,26.65
2017-08-02T04:47:24.417Z,26.62
2017-08-02T04:48:24.750Z,26.7
2017-08-02T04:49:24.475Z,26.69
2017-08-02T04:50:24.799Z,26.8
2017-08-02T04:51:24.529Z,26.76
2017-08-02T04:52:24.868Z,26.72
2017-08-02T04:53:24.895Z,26.77
2017-08-02T04:54:24.955Z,26.75
2017-08-02T04:55:24.957Z,26.77
2017-08-02T04:56:24.663Z,26.69
2017-08-02T04:57:25.013Z,26.72
2017-08-02T04:58:24.726Z,26.72
2017-08-02T04:59:25.347Z,26.72
2017-08-02T05:00:25.101Z,26.63
2017-08-02T05:01:25.125Z,26.69
2017-08-02T05:02:24.841Z,26.67
2017-08-02T05:03:24.869Z,26.75
2017-08-02T05:04:25.210Z,26.66
2017-08-02T05:05:24.929Z,26.8
2017-08-02T05:06:25.283Z,26.67
2017-08-02T05:07:24.988Z,26.8
2017-08-02T05:08:25.019Z,26.73
2017-08-02T05:09:25.305Z,26.65
2017-08-02T05:10:25.076Z,26.62
2017-08-02T05:11:25.101Z,26.67
2017-08-02T05:12:25.442Z,26.66
2017-08-02T05:13:25.474Z,26.62
2017-08-02T05:14:25.797Z,26.63
2017-08-02T05:15:25.223Z,26.69
2017-08-02T05:16:25.240Z,26.67
2017-08-02T05:17:25.284Z,26.63
2017-08-02T05:18:25.615Z,26.66
2017-08-02T05:19:25.896Z,26.69
2017-08-02T05:20:25.359Z,26.69
2017-08-02T05:21:25.389Z,26.66
2017-08-02T05:22:25.430Z,26.62
2017-08-02T05:23:25.775Z,26.66
2017-08-02T05:24:25.782Z,26.58
2017-08-02T05:25:25.504Z,26.6
2017-08-02T05:26:25.533Z,26.67
2017-08-02T05:27:25.874Z,26.55
2017-08-02T05:28:25.896Z,26.62
2017-08-02T05:29:26.180Z,26.52
2017-08-02T05:30:25.652Z,26.51
2017-08-02T05:31:25.988Z,26.58
2017-08-02T05:32:25.720Z,26.63
2017-08-02T05:33:25.732Z,26.58
2017-08-02T05:34:25.707Z,26.57
2017-08-02T05:35:25.799Z,26.66
2017-08-02T05:36:26.145Z,26.51
2017-08-02T05:37:25.846Z,26.54
2017-08-02T05:38:25.879Z,26.5
2017-08-02T05:39:26.156Z,26.52
2017-08-02T05:40:25.620Z,26.65
2017-08-02T05:41:26.274Z,26.51
2017-08-02T05:42:25.995Z,26.63
2017-08-02T05:43:26.030Z,26.65
2017-08-02T05:44:26.295Z,26.62
2017-08-02T05:45:26.076Z,26.63
2017-08-02T05:46:26.422Z,26.52
2017-08-02T05:47:26.458Z,26.7
2017-08-02T05:48:25.859Z,26.69
2017-08-02T05:49:26.495Z,26.67
2017-08-02T05:50:26.541Z,26.63
2017-08-02T05:51:26.245Z,26.65
2017-08-02T05:52:26.278Z,26.69
2017-08-02T05:53:26.307Z,26.69
2017-08-02T05:54:26.649Z,26.63
2017-08-02T05:55:26.362Z,26.69
2017-08-02T05:56:26.706Z,26.69
2017-08-02T05:57:26.746Z,26.67
2017-08-02T05:58:26.449Z,26.67
2017-08-02T05:59:26.780Z,26.65
2017-08-02T06:00:26.501Z,26.63
2017-08-02T06:01:26.565Z,26.6
2017-08-02T06:02:26.261Z,26.63
2017-08-02T06:03:26.593Z,26.54
2017-08-02T06:04:26.614Z,26.62
2017-08-02T06:05:26.965Z,26.73
2017-08-02T06:06:26.677Z,26.63
2017-08-02T06:07:27.019Z,26.65
2017-08-02T06:08:26.737Z,26.67
2017-08-02T06:09:27.396Z,26.54
2017-08-02T06:10:27.114Z,26.62
2017-08-02T06:11:27.143Z,26.54
2017-08-02T06:12:27.165Z,26.65
2017-08-02T06:13:27.203Z,26.65
2017-08-02T06:14:27.221Z,26.52
2017-08-02T06:15:26.947Z,26.65
2017-08-02T06:16:27.277Z,26.66
2017-08-02T06:17:27.315Z,26.65
2017-08-02T06:18:27.344Z,26.63
2017-08-02T06:19:27.646Z,26.65
2017-08-02T06:20:27.394Z,26.69
2017-08-02T06:21:26.802Z,26.69
2017-08-02T06:22:27.468Z,26.67
2017-08-02T06:23:27.487Z,26.63
2017-08-02T06:24:27.454Z,26.67
2017-08-02T06:25:27.534Z,26.6
2017-08-02T06:26:27.576Z,26.67
2017-08-02T06:27:27.617Z,26.66
2017-08-02T06:28:27.631Z,26.76
2017-08-02T06:29:27.921Z,26.69
2017-08-02T06:30:27.369Z,26.75
2017-08-02T06:31:27.398Z,26.76
2017-08-02T06:32:27.427Z,26.69
2017-08-02T06:33:27.776Z,26.69
2017-08-02T06:34:27.501Z,26.76
2017-08-02T06:35:27.531Z,26.65
2017-08-02T06:36:27.862Z,26.75
2017-08-02T06:37:27.580Z,26.72
2017-08-02T06:38:27.911Z,26.7
2017-08-02T06:39:27.884Z,26.77
2017-08-02T06:40:27.973Z,26.8
2017-08-02T06:41:27.704Z,26.73
2017-08-02T06:42:28.037Z,26.76
2017-08-02T06:43:27.755Z,26.72
2017-08-02T06:44:28.343Z,26.73
2017-08-02T06:45:27.802Z,26.72
2017-08-02T06:46:27.870Z,26.67
2017-08-02T06:47:27.557Z,26.72
2017-08-02T06:48:27.889Z,26.73
2017-08-02T06:49:27.913Z,26.77
2017-08-02T06:50:27.953Z,26.81
2017-08-02T06:51:27.983Z,26.82
2017-08-02T06:52:28.008Z,26.8
2017-08-02T06:53:28.083Z,26.77
2017-08-02T06:54:28.060Z,26.8
2017-08-02T06:55:28.406Z,26.82
2017-08-02T06:56:28.127Z,26.92
2017-08-02T06:57:27.842Z,26.88
2017-08-02T06:58:28.176Z,26.87
2017-08-02T06:59:27.897Z,26.92
2017-08-02T07:00:28.233Z,26.87
2017-08-02T07:01:28.591Z,26.92
2017-08-02T07:02:28.292Z,26.99
2017-08-02T07:03:28.624Z,26.99
2017-08-02T07:04:28.040Z,26.97
2017-08-02T07:05:28.372Z,27
2017-08-02T07:06:28.723Z,26.91
2017-08-02T07:07:28.123Z,26.94
2017-08-02T07:08:28.153Z,27.03
2017-08-02T07:09:28.501Z,26.95
2017-08-02T07:10:28.839Z,26.94
2017-08-02T07:11:28.555Z,26.92
2017-08-02T07:12:28.272Z,26.95
2017-08-02T07:13:28.613Z,26.92
2017-08-02T07:14:28.645Z,26.97
2017-08-02T07:15:28.986Z,26.91
2017-08-02T07:16:28.699Z,26.95
2017-08-02T07:17:29.044Z,26.97
2017-08-02T07:18:28.785Z,26.91
2017-08-02T07:19:28.786Z,26.94
2017-08-02T07:20:28.505Z,26.95
2017-08-02T07:21:29.157Z,26.97
2017-08-02T07:22:29.185Z,26.94
2017-08-02T07:23:29.224Z,26.95
2017-08-02T07:24:28.933Z,26.95
2017-08-02T07:25:29.274Z,26.92
2017-08-02T07:26:28.999Z,27.03
2017-08-02T07:27:29.025Z,26.91
2017-08-02T07:28:29.359Z,26.94
2017-08-02T07:29:28.765Z,27
2017-08-02T07:30:29.426Z,26.95
2017-08-02T07:31:29.134Z,26.92
2017-08-02T07:32:28.852Z,26.91
2017-08-02T07:33:29.509Z,26.88
2017-08-02T07:34:29.533Z,26.92
2017-08-02T07:35:29.249Z,27
2017-08-02T07:36:28.966Z,26.94
2017-08-02T07:37:29.312Z,26.97
2017-08-02T07:38:29.649Z,27
2017-08-02T07:39:29.378Z,26.89
2017-08-02T07:40:29.711Z,26.94
2017-08-02T07:41:29.426Z,26.95
2017-08-02T07:42:29.462Z,26.99
2017-08-02T07:43:29.175Z,26.95
2017-08-02T07:44:29.822Z,26.99
2017-08-02T07:45:29.873Z,26.94
2017-08-02T07:46:29.252Z,26.89
2017-08-02T07:47:29.915Z,26.99
2017-08-02T07:48:29.625Z,26.92
2017-08-02T07:49:29.964Z,26.95
2017-08-02T07:50:29.996Z,26.97
2017-08-02T07:51:29.399Z,26.99
2017-08-02T07:52:30.056Z,27.02
2017-08-02T07:53:29.770Z,27.04
2017-08-02T07:54:30.123Z,26.97
2017-08-02T07:55:30.127Z,27.02
2017-08-02T07:56:29.860Z,27.06
2017-08-02T07:57:30.203Z,26.97
2017-08-02T07:58:30.228Z,27
2017-08-02T07:59:30.257Z,27.02
2017-08-02T08:00:30.266Z,27
2017-08-02T08:01:29.999Z,27.04
2017-08-02T08:02:30.344Z,27.09
2017-08-02T08:03:30.056Z,27
2017-08-02T08:04:30.397Z,26.99
2017-08-02T08:05:30.113Z,27.04
2017-08-02T08:06:30.143Z,27.04
2017-08-02T08:07:30.487Z,27.02
2017-08-02T08:08:29.899Z,27
2017-08-02T08:09:30.542Z,26.99
2017-08-02T08:10:30.558Z,26.97
2017-08-02T08:11:30.294Z,27.02
2017-08-02T08:12:30.631Z,27.06
2017-08-02T08:13:30.665Z,27
2017-08-02T08:14:30.373Z,27.06
2017-08-02T08:15:31.014Z,27
2017-08-02T08:16:30.752Z,27.09
2017-08-02T08:17:30.153Z,27.06
2017-08-02T08:18:30.493Z,27.09
2017-08-02T08:19:30.841Z,27.1
2017-08-02T08:20:30.490Z,27.1
2017-08-02T08:21:30.581Z,27.06
2017-08-02T08:22:30.605Z,27.1
2017-08-02T08:23:30.639Z,27.09
2017-08-02T08:24:30.974Z,27.12
2017-08-02T08:25:31.255Z,27.06
2017-08-02T08:26:31.036Z,27.13
2017-08-02T08:27:31.074Z,27.1
2017-08-02T08:28:30.781Z,27.13
2017-08-02T08:29:30.818Z,27.17
2017-08-02T08:30:31.450Z,27.1
2017-08-02T08:31:31.211Z,27.17
2017-08-02T08:32:31.213Z,27.12
2017-08-02T08:33:30.934Z,27.19
2017-08-02T08:34:30.961Z,27.22
2017-08-02T08:35:31.551Z,27.21
2017-08-02T08:36:31.024Z,27.12
2017-08-02T08:37:30.737Z,27.17
2017-08-02T08:38:30.768Z,27.13
2017-08-02T08:39:30.791Z,27.14
2017-08-02T08:40:31.427Z,27.28
2017-08-02T08:41:31.477Z,27.21
2017-08-02T08:42:31.492Z,27.28
2017-08-02T08:43:31.216Z,27.27
2017-08-02T08:44:31.245Z,27.24
2017-08-02T08:45:31.581Z,27.28
2017-08-02T08:46:31.306Z,27.24
2017-08-02T08:47:31.336Z,27.24
2017-08-02T08:48:31.051Z,27.29
2017-08-02T08:49:31.392Z,27.27
2017-08-02T08:50:31.671Z,27.27
2017-08-02T08:51:31.446Z,27.25
2017-08-02T08:52:31.168Z,27.25
2017-08-02T08:53:31.509Z,27.27
2017-08-02T08:54:31.226Z,27.34
2017-08-02T08:55:31.560Z,27.36
2017-08-02T08:56:31.904Z,27.29
2017-08-02T08:57:31.621Z,27.31
2017-08-02T08:58:31.654Z,27.29
2017-08-02T08:59:31.995Z,27.41
2017-08-02T09:00:32.321Z,27.46
2017-08-02T09:01:32.053Z,27.39
2017-08-02T09:02:32.094Z,27.37
2017-08-02T09:03:31.814Z,27.32
2017-08-02T09:04:31.830Z,27.46
2017-08-02T09:05:31.884Z,27.41
2017-08-02T09:06:32.223Z,27.49
2017-08-02T09:07:31.916Z,27.54
2017-08-02T09:08:32.262Z,27.5
2017-08-02T09:09:31.976Z,27.5
2017-08-02T09:10:32.308Z,27.51
2017-08-02T09:11:32.040Z,27.5
2017-08-02T09:12:32.386Z,27.49
2017-08-02T09:13:32.097Z,27.51
2017-08-02T09:14:32.119Z,27.59
2017-08-02T09:15:32.482Z,27.63
2017-08-02T09:16:31.867Z,27.54
2017-08-02T09:17:32.534Z,27.55
2017-08-02T09:18:32.242Z,27.57
2017-08-02T09:19:32.578Z,27.65
2017-08-02T09:20:32.616Z,27.65
2017-08-02T09:21:32.336Z,27.6
2017-08-02T09:22:32.050Z,27.6
2017-08-02T09:23:32.388Z,27.66
2017-08-02T09:24:32.421Z,27.74
2017-08-02T09:25:32.450Z,27.63
2017-08-02T09:26:32.479Z,27.7
2017-08-02T09:27:32.818Z,27.69
2017-08-02T09:28:32.531Z,27.66
2017-08-02T09:29:32.871Z,27.69
2017-08-02T09:30:32.596Z,27.63
2017-08-02T09:31:32.310Z,27.66
2017-08-02T09:32:32.655Z,27.7
2017-08-02T09:33:32.679Z,27.72
2017-08-02T09:34:33.023Z,27.74
2017-08-02T09:35:33.050Z,27.79
2017-08-02T09:36:33.082Z,27.69
2017-08-02T09:37:32.789Z,27.74
2017-08-02T09:38:33.139Z,27.77
2017-08-02T09:39:32.856Z,27.74
2017-08-02T09:40:33.197Z,27.74
2017-08-02T09:41:33.220Z,27.74
2017-08-02T09:42:32.965Z,27.85
2017-08-02T09:43:32.969Z,27.72
2017-08-02T09:44:33.318Z,27.85
2017-08-02T09:45:33.037Z,27.88
2017-08-02T09:46:33.666Z,27.77
2017-08-02T09:47:33.083Z,27.84
2017-08-02T09:48:33.123Z,27.77
2017-08-02T09:49:33.147Z,27.79
2017-08-02T09:50:33.488Z,27.87
2017-08-02T09:51:33.461Z,27.85
2017-08-02T09:52:33.549Z,27.79
2017-08-02T09:53:33.279Z,27.9
2017-08-02T09:54:33.615Z,27.81
2017-08-02T09:55:33.329Z,27.84
2017-08-02T09:56:33.662Z,27.93
2017-08-02T09:57:33.698Z,27.96
2017-08-02T09:58:33.722Z,27.96
2017-08-02T09:59:33.444Z,27.99
2017-08-02T10:00:33.470Z,28.11
2017-08-02T10:01:33.807Z,28.04
2017-08-02T10:02:33.850Z,28.04
2017-08-02T10:03:33.573Z,28.04
2017-08-02T10:04:33.597Z,28.14
2017-08-02T10:05:33.932Z,28.17
2017-08-02T10:06:33.646Z,28.15
2017-08-02T10:07:33.687Z,28.17
2017-08-02T10:08:33.404Z,28.15
2017-08-02T10:09:33.731Z,28.24
2017-08-02T10:10:33.764Z,28.22
2017-08-02T10:11:34.414Z,28.27
2017-08-02T10:12:33.830Z,28.27
2017-08-02T10:13:34.171Z,28.29
2017-08-02T10:14:33.890Z,28.31
2017-08-02T10:15:34.236Z,28.29
2017-08-02T10:16:34.209Z,28.39
2017-08-02T10:17:34.301Z,28.36
2017-08-02T10:18:34.319Z,28.44
2017-08-02T10:19:34.341Z,28.43
2017-08-02T10:20:34.387Z,28.4
2017-08-02T10:21:34.393Z,28.44
2017-08-02T10:22:34.438Z,28.43
2017-08-02T10:23:34.467Z,28.48
2017-08-02T10:24:34.189Z,28.4
2017-08-02T10:25:34.529Z,28.48
2017-08-02T10:26:34.545Z,28.43
2017-08-02T10:27:34.599Z,28.43
2017-08-02T10:28:34.612Z,28.49
2017-08-02T10:29:34.351Z,28.39
2017-08-02T10:30:34.681Z,28.43
2017-08-02T10:31:34.694Z,28.55
2017-08-02T10:32:34.431Z,28.46
2017-08-02T10:33:34.447Z,28.56
2017-08-02T10:34:34.806Z,28.44
2017-08-02T10:35:34.518Z,28.54
2017-08-02T10:36:34.842Z,28.44
2017-08-02T10:37:34.884Z,28.52
2017-08-02T10:38:34.600Z,28.51
2017-08-02T10:39:34.948Z,28.48
2017-08-02T10:40:34.674Z,28.52
2017-08-02T10:41:35.310Z,28.52
2017-08-02T10:42:34.411Z,28.54
2017-08-02T10:43:34.762Z,28.55
2017-08-02T10:44:34.476Z,28.54
2017-08-02T10:45:35.120Z,28.59
2017-08-02T10:46:34.850Z,28.52
2017-08-02T10:47:34.877Z,28.61
2017-08-02T10:48:34.907Z,28.54
2017-08-02T10:49:35.248Z,28.59
2017-08-02T10:50:34.977Z,28.55
2017-08-02T10:51:35.303Z,28.58
2017-08-02T10:52:35.023Z,28.58
2017-08-02T10:53:35.368Z,28.55
2017-08-02T10:54:35.390Z,28.55
2017-08-02T10:55:35.424Z,28.54
2017-08-02T10:56:35.143Z,28.54
2017-08-02T10:57:35.176Z,28.51
2017-08-02T10:58:35.512Z,28.51
2017-08-02T10:59:35.240Z,28.61
2017-08-02T11:00:35.282Z,28.61
2017-08-02T11:01:35.293Z,28.58
2017-08-02T11:02:35.632Z,28.52
2017-08-02T11:03:35.672Z,28.58
2017-08-02T11:04:35.699Z,28.58
2017-08-02T11:05:35.102Z,28.61
2017-08-02T11:06:35.455Z,28.58
2017-08-02T11:07:35.787Z,28.64
2017-08-02T11:08:35.505Z,28.67
2017-08-02T11:09:35.850Z,28.62
2017-08-02T11:10:35.882Z,28.66
2017-08-02T11:11:35.591Z,28.67
2017-08-02T11:12:35.940Z,28.7
2017-08-02T11:13:35.960Z,28.76
2017-08-02T11:14:35.685Z,28.77
2017-08-02T11:15:35.721Z,28.85
2017-08-02T11:16:35.433Z,28.85
2017-08-02T11:17:36.074Z,28.86
2017-08-02T11:18:36.120Z,28.93
2017-08-02T11:19:36.150Z,28.88
2017-08-02T11:20:36.174Z,28.89
2017-08-02T11:21:36.214Z,28.89
2017-08-02T11:22:36.176Z,28.92
2017-08-02T11:23:36.278Z,28.86
2017-08-02T11:24:35.989Z,28.86
2017-08-02T11:25:36.330Z,28.92
2017-08-02T11:26:35.740Z,28.9
2017-08-02T11:27:36.650Z,28.9
2017-08-02T11:28:36.420Z,28.85
2017-08-02T11:29:36.136Z,28.89
2017-08-02T11:30:36.169Z,28.86
2017-08-02T11:31:36.199Z,28.83
2017-08-02T11:32:36.844Z,28.86
2017-08-02T11:33:36.273Z,28.89
2017-08-02T11:34:36.614Z,28.9
2017-08-02T11:35:36.320Z,28.88
2017-08-02T11:36:36.658Z,28.88
2017-08-02T11:37:36.367Z,28.8
2017-08-02T11:38:36.417Z,28.83
2017-08-02T11:39:36.450Z,28.85
2017-08-02T11:40:36.787Z,28.83
2017-08-02T11:41:36.520Z,28.89
2017-08-02T11:42:36.521Z,28.92
2017-08-02T11:43:36.881Z,28.86
2017-08-02T11:44:36.277Z,28.88
2017-08-02T11:45:36.626Z,28.83
2017-08-02T11:46:36.655Z,28.89
2017-08-02T11:47:36.985Z,28.86
2017-08-02T11:48:37.036Z,28.86
2017-08-02T11:49:37.058Z,28.92
2017-08-02T11:50:37.091Z,28.96
2017-08-02T11:51:37.133Z,28.89
2017-08-02T11:52:37.152Z,29.05
2017-08-02T11:53:37.171Z,28.93
2017-08-02T11:54:36.894Z,28.96
2017-08-02T11:55:36.613Z,29.06
2017-08-02T11:56:36.648Z,29.12
2017-08-02T11:57:37.297Z,29.08
2017-08-02T11:58:37.017Z,29.18
2017-08-02T11:59:37.058Z,29.23
2017-08-02T12:00:37.395Z,29.26
2017-08-02T12:01:37.427Z,29.41
2017-08-02T12:02:37.131Z,29.46
2017-08-02T12:03:37.178Z,29.63
2017-08-02T12:04:37.215Z,29.67
2017-08-02T12:05:37.543Z,29.71
2017-08-02T12:06:37.572Z,29.76
2017-08-02T12:07:37.604Z,29.85
2017-08-02T12:08:37.338Z,29.92
2017-08-02T12:09:37.383Z,29.86
2017-08-02T12:10:37.700Z,29.92
2017-08-02T12:11:37.741Z,29.87
2017-08-02T12:12:38.020Z,29.9
2017-08-02T12:13:37.806Z,29.98
2017-08-02T12:14:37.206Z,29.92
2017-08-02T12:15:37.240Z,30.15
2017-08-02T12:16:37.584Z,30.2
2017-08-02T12:17:38.220Z,30.17
2017-08-02T12:18:37.950Z,30.26
2017-08-02T12:19:37.675Z,30.38
2017-08-02T12:20:38.019Z,30.43
2017-08-02T12:21:37.732Z,30.38
2017-08-02T12:22:37.766Z,30.43
2017-08-02T12:23:37.808Z,30.46
2017-08-02T12:24:37.831Z,30.51
2017-08-02T12:25:38.173Z,30.49
2017-08-02T12:26:37.888Z,30.46
2017-08-02T12:27:37.926Z,30.47
2017-08-02T12:28:38.272Z,30.53
2017-08-02T12:29:37.987Z,30.38
2017-08-02T12:30:38.019Z,30.49
2017-08-02T12:31:38.059Z,30.34
2017-08-02T12:32:38.398Z,30.39
2017-08-02T12:33:38.430Z,30.51
2017-08-02T12:34:38.148Z,30.62
2017-08-02T12:35:38.184Z,30.64
2017-08-02T12:36:38.204Z,30.7
2017-08-02T12:37:38.566Z,30.69
2017-08-02T12:38:38.581Z,30.95
2017-08-02T12:39:38.311Z,30.94
2017-08-02T12:40:38.645Z,30.99
2017-08-02T12:41:38.377Z,31.28
2017-08-02T12:42:38.402Z,31.23
2017-08-02T12:43:38.734Z,31.31
2017-08-02T12:44:38.776Z,31.41
2017-08-02T12:45:38.495Z,31.36
2017-08-02T12:46:38.853Z,31.38
2017-08-02T12:47:38.253Z,31.36
2017-08-02T12:48:38.590Z,31.35
2017-08-02T12:49:38.938Z,31.32
2017-08-02T12:50:38.967Z,31.35
2017-08-02T12:51:38.384Z,31.38
2017-08-02T12:52:38.406Z,31.38
2017-08-02T12:53:39.369Z,31.28
2017-08-02T12:54:39.100Z,31.19
2017-08-02T12:55:38.816Z,31.26
2017-08-02T12:56:39.165Z,31.35
2017-08-02T12:57:38.886Z,31.47